createdAt,value
2018-08-06T05:05:00.216Z,23.41
2018-08-06T05:10:04.319Z,23.42
2018-08-06T05:15:07.649Z,23.54
2018-08-06T05:20:10.988Z,23.67
2018-08-06T05:25:14.334Z,23.89
2018-08-06T05:30:17.663Z,23.91
2018-08-06T05:35:21.011Z,24.04
2018-08-06T05:40:25.098Z,24.11
2018-08-06T05:45:28.430Z,24.20
2018-08-06T05:50:31.793Z,24.25
2018-08-06T05:55:35.330Z,24.28
2018-08-06T06:00:38.939Z,24.37
2018-08-06T06:05:48.067Z,24.32
2018-08-06T06:10:51.609Z,24.43
2018-08-06T06:15:54.951Z,24.54
2018-08-06T06:20:58.330Z,24.62
2018-08-06T06:26:05.546Z,24.76
2018-08-06T06:31:08.868Z,24.89
2018-08-06T06:36:12.211Z,24.90
2018-08-06T06:41:16.322Z,25.03
2018-08-06T06:52:03.869Z,25.22
2018-08-06T06:57:07.194Z,25.23
2018-08-06T07:02:10.530Z,25.25
2018-08-06T07:07:14.243Z,25.29
2018-08-06T07:12:17.586Z,25.47
2018-08-06T07:17:21.701Z,25.54
2018-08-06T07:22:25.047Z,25.74
2018-08-06T07:27:28.380Z,25.88
2018-08-06T07:32:31.717Z,25.96
2018-08-06T07:37:35.059Z,26.07
2018-08-06T07:42:39.150Z,26.06
2018-08-06T07:47:42.498Z,26.24
2018-08-06T07:52:46.694Z,26.35
2018-08-06T07:57:50.039Z,26.44
2018-08-06T08:02:53.388Z,26.51
2018-08-06T08:07:56.723Z,26.68
2018-08-06T08:13:00.065Z,26.79
2018-08-06T08:18:03.420Z,26.52
2018-08-06T08:23:07.547Z,26.78
2018-08-06T08:28:10.888Z,26.87
2018-08-06T08:33:14.226Z,26.92
2018-08-06T08:38:17.567Z,27.04
2018-08-06T08:43:21.670Z,27.07
2018-08-06T08:48:25.006Z,27.16
2018-08-06T08:53:28.355Z,27.30
2018-08-06T08:58:31.756Z,27.34
2018-08-06T09:03:35.083Z,27.41
2018-08-06T09:08:38.431Z,27.55
2018-08-06T09:13:41.766Z,27.66
2018-08-06T09:18:45.906Z,27.73
2018-08-06T09:23:50.024Z,27.75
2018-08-06T09:28:53.370Z,27.80
2018-08-06T09:33:56.711Z,27.95
2018-08-06T09:39:00.055Z,28.05
2018-08-06T09:44:03.556Z,28.27
2018-08-06T09:49:06.931Z,28.45
2018-08-06T09:54:10.299Z,28.44
2018-08-06T09:59:13.646Z,28.56
2018-08-06T10:04:17.746Z,28.65
2018-08-06T10:09:21.090Z,28.84
2018-08-06T10:14:25.378Z,28.97
2018-08-06T10:19:28.965Z,29.08
2018-08-06T10:24:33.379Z,29.18
2018-08-06T10:29:36.685Z,29.18
2018-08-06T10:34:40.968Z,29.32
2018-08-06T10:39:44.334Z,29.41
2018-08-06T10:44:48.454Z,29.52
2018-08-06T10:49:52.755Z,29.56
2018-08-06T10:54:56.116Z,29.64
2018-08-06T11:00:00.207Z,29.61
2018-08-06T11:05:03.543Z,29.83
2018-08-06T11:10:06.874Z,29.82
2018-08-06T11:15:10.203Z,29.78
2018-08-06T11:20:13.570Z,29.94
2018-08-06T11:25:16.906Z,30.15
2018-08-06T11:30:21.002Z,30.26
2018-08-06T11:35:24.341Z,30.39
2018-08-06T11:40:28.450Z,30.50
2018-08-06T11:45:31.777Z,30.66
2018-08-06T11:50:35.110Z,30.78
2018-08-06T11:55:38.449Z,30.96
2018-08-06T12:00:41.787Z,31.14
2018-08-06T12:05:45.203Z,31.22
2018-08-06T12:10:48.538Z,31.53
2018-08-06T12:15:52.658Z,31.61
2018-08-06T12:20:56.057Z,31.85
2018-08-06T12:25:59.459Z,32.07
2018-08-06T12:31:02.721Z,32.26
2018-08-06T12:36:06.833Z,32.35
2018-08-06T12:41:10.200Z,32.60
2018-08-06T12:46:13.543Z,32.87
2018-08-06T12:51:16.901Z,32.97
2018-08-06T12:56:20.234Z,33.05
2018-08-06T13:01:23.562Z,33.25
2018-08-06T13:06:26.901Z,33.35
2018-08-06T13:11:30.243Z,33.46
2018-08-06T13:16:34.350Z,33.65
2018-08-06T13:21:37.699Z,34.01
2018-08-06T13:26:41.029Z,33.95
2018-08-06T13:31:44.358Z,34.38
2018-08-06T13:36:47.719Z,34.61
2018-08-06T13:41:51.040Z,34.96
2018-08-06T13:46:55.176Z,35.36
2018-08-06T13:51:58.489Z,35.74
2018-08-06T13:57:01.828Z,35.77
2018-08-06T14:02:05.175Z,35.83
2018-08-06T14:07:08.569Z,36.46
2018-08-06T14:12:11.862Z,36.77
2018-08-06T14:17:15.194Z,36.78
2018-08-06T14:22:18.525Z,36.91
2018-08-06T14:27:21.856Z,36.99
2018-08-06T14:32:25.227Z,36.93
2018-08-06T14:37:28.584Z,36.75
2018-08-06T14:42:32.741Z,36.52
2018-08-06T14:47:36.099Z,37.34
2018-08-06T14:52:39.461Z,37.39
2018-08-06T14:57:42.849Z,36.80
2018-08-06T15:02:46.271Z,37.55
2018-08-06T15:07:50.553Z,38.05
2018-08-06T15:12:54.083Z,36.81
2018-08-06T15:17:57.597Z,36.82
2018-08-06T15:23:00.930Z,38.09
2018-08-06T15:28:05.035Z,38.83
2018-08-06T15:33:08.387Z,38.78
2018-08-06T15:38:12.482Z,39.02
2018-08-06T15:43:15.830Z,39.54
2018-08-06T15:48:19.936Z,40.02
2018-08-06T15:53:23.274Z,40.24
2018-08-06T15:58:26.614Z,39.15
2018-08-06T16:03:29.961Z,38.59
2018-08-06T16:08:33.294Z,39.28
2018-08-06T16:13:36.625Z,39.67
2018-08-06T16:18:40.731Z,39.91
2018-08-06T16:23:44.076Z,40.06
2018-08-06T16:28:47.422Z,39.03
2018-08-06T16:33:50.755Z,38.98
2018-08-06T16:38:54.091Z,38.69
2018-08-06T16:43:57.418Z,39.00
2018-08-06T16:49:01.533Z,39.26
2018-08-06T16:54:04.870Z,38.90
2018-08-06T16:59:08.978Z,38.93
2018-08-06T17:04:12.449Z,38.78
2018-08-06T17:09:16.286Z,38.78
2018-08-06T17:14:48.195Z,37.74
2018-08-06T17:19:51.775Z,37.73
2018-08-06T17:24:55.524Z,37.65
2018-08-06T17:30:00.651Z,37.98
2018-08-06T17:35:04.323Z,37.94
2018-08-06T17:40:08.744Z,37.77
2018-08-06T17:45:13.164Z,37.41
2018-08-06T17:50:16.757Z,37.08
2018-08-06T17:55:20.492Z,36.55
2018-08-06T18:00:24.021Z,36.28
2018-08-06T18:05:27.547Z,35.99
2018-08-06T18:10:31.799Z,35.84
2018-08-06T18:15:36.093Z,35.63
2018-08-06T18:20:42.608Z,35.61
2018-08-06T18:25:47.116Z,35.61
2018-08-06T18:30:50.617Z,35.29
2018-08-06T18:35:54.365Z,34.87
2018-08-06T18:40:57.707Z,34.44
2018-08-06T18:46:01.047Z,34.23
2018-08-06T18:51:05.147Z,34.11
2018-08-06T18:56:20.322Z,34.06
2018-08-06T19:01:23.812Z,33.95
2018-08-06T19:06:29.243Z,33.83
2018-08-06T19:11:33.697Z,33.76
2018-08-06T19:16:43.155Z,33.80
2018-08-06T19:21:46.770Z,33.65
2018-08-06T19:26:50.377Z,33.11
2018-08-06T19:31:54.008Z,32.79
2018-08-06T19:36:57.801Z,32.71
2018-08-06T19:42:01.453Z,32.58
2018-08-06T19:47:05.164Z,32.59
2018-08-06T19:52:08.741Z,32.74
2018-08-06T19:57:13.211Z,32.85
2018-08-06T20:02:16.643Z,32.90
2018-08-06T20:07:19.890Z,32.91
2018-08-06T20:12:23.269Z,32.80
2018-08-06T20:17:26.597Z,32.71
2018-08-06T20:22:30.322Z,32.67
2018-08-06T20:27:33.842Z,32.63
2018-08-06T20:32:37.185Z,32.54
2018-08-06T20:37:40.531Z,32.41
2018-08-06T20:42:44.630Z,32.31
2018-08-06T20:47:47.967Z,32.25
2018-08-06T20:52:52.056Z,32.18
2018-08-06T20:57:55.383Z,32.06
2018-08-06T21:02:58.761Z,31.87
2018-08-06T21:08:02.072Z,31.65
2018-08-06T21:13:05.420Z,31.37
2018-08-06T21:18:08.752Z,31.11
2018-08-06T21:23:12.839Z,30.97
2018-08-06T21:28:16.352Z,30.84
2018-08-06T21:33:19.876Z,30.80
2018-08-06T21:38:23.302Z,30.57
2018-08-06T21:43:26.638Z,30.30
2018-08-06T21:48:29.976Z,29.62
2018-08-06T21:53:33.314Z,29.65
2018-08-06T21:58:36.674Z,29.48
2018-08-06T22:03:39.999Z,29.20
2018-08-06T22:08:43.325Z,29.16
2018-08-06T22:13:46.659Z,28.99
2018-08-06T22:18:50.047Z,29.00
2018-08-06T22:23:53.339Z,29.07
2018-08-06T22:28:56.670Z,28.95
